Time;durP1;ratioP1;P1;durP2;ratioP2;P2;SDS_P1;SDS_P2;PMS_P1;PMS_P2;Temp;Humidity;BMP_temperature;BMP_pressure;BME280_temperature;BME280_humidity;BME280_pressure;Samples;Min_cycle;Max_cycle;Signal;HPM_P1;HPM_P2
2023/02/10 00:01:17;;;;;;;;;105.00;94.00;;;;;5.24;95.48;103307.25;5088311;27;45282;-75
2023/02/10 00:03:43;;;;;;;;;104.00;98.33;;;;;5.21;95.89;103307.38;5100322;27;45496;-75
2023/02/10 00:06:10;;;;;;;;;103.67;98.00;;;;;5.20;95.78;103299.59;5103857;27;45353;-74
2023/02/10 00:08:35;;;;;;;;;109.67;100.33;;;;;5.24;95.82;103311.69;5103977;27;45301;-75
2023/02/10 00:11:04;;;;;;;;;103.67;95.00;;;;;5.29;95.35;103307.88;5100142;27;45409;-75
2023/02/10 00:13:30;;;;;;;;;101.33;96.00;;;;;5.30;96.17;103306.13;5100313;27;45478;-75
2023/02/10 00:16:03;;;;;;;;;103.33;96.33;;;;;5.29;96.32;103309.66;5100092;27;45336;-75
2023/02/10 00:18:29;;;;;;;;;102.67;93.67;;;;;5.24;96.07;103312.50;5099841;27;46334;-74
2023/02/10 00:20:55;;;;;;;;;96.33;89.33;;;;;5.23;95.40;103312.59;5099760;27;45260;-75
2023/02/10 00:23:20;;;;;;;;;96.50;85.50;;;;;5.21;95.18;103307.38;5099757;27;46561;-75
2023/02/10 00:25:46;;;;;;;;;100.33;92.33;;;;;5.23;95.12;103310.81;5099886;27;45473;-75
2023/02/10 00:28:11;;;;;;;;;95.25;88.00;;;;;5.20;95.52;103302.22;5097146;27;47360;-75
2023/02/10 00:30:38;;;;;;;;;97.33;88.00;;;;;5.25;95.18;103298.44;5099762;27;45293;-75
2023/02/10 00:33:04;;;;;;;;;69.33;55.67;;;;;5.28;95.79;103311.47;5099547;27;45329;-75
2023/02/10 00:35:29;;;;;;;;;102.33;94.67;;;;;5.27;95.68;103300.97;5098542;27;46277;-75
2023/02/10 00:37:54;;;;;;;;;110.67;99.33;;;;;5.23;96.03;103309.94;5099374;27;46331;-75
2023/02/10 00:40:20;;;;;;;;;103.67;97.67;;;;;5.19;96.54;103309.28;5098496;27;45328;-75
2023/02/10 00:42:45;;;;;;;;;106.33;94.67;;;;;5.21;96.52;103307.38;5099306;27;45320;-75
2023/02/10 00:45:10;;;;;;;;;98.67;95.00;;;;;5.31;96.02;103326.28;5099652;27;45583;-75
2023/02/10 00:47:36;;;;;;;;;96.00;88.00;;;;;5.37;96.57;103325.97;5094796;27;47341;-75
2023/02/10 00:50:01;;;;;;;;;104.67;98.00;;;;;5.39;96.23;103321.47;5090362;27;45301;-75
2023/02/10 00:52:27;;;;;;;;;103.00;96.67;;;;;5.43;95.92;103317.75;5099327;27;45290;-75
2023/02/10 00:54:52;;;;;;;;;99.33;91.00;;;;;5.43;96.17;103306.34;5099462;27;45441;-75
2023/02/10 00:57:17;;;;;;;;;96.67;90.67;;;;;5.37;97.00;103307.50;5097820;27;46063;-75
2023/02/10 00:59:43;;;;;;;;;100.00;92.67;;;;;5.41;97.43;103306.41;5099618;27;45432;-75
2023/02/10 01:02:09;;;;;;;;;106.67;101.00;;;;;5.41;97.08;103309.06;5099533;27;45340;-75
2023/02/10 01:04:34;;;;;;;;;117.33;103.33;;;;;5.38;97.02;103310.97;5098128;27;46215;-76
2023/02/10 01:07:00;;;;;;;;;100.67;96.67;;;;;5.43;97.04;103308.97;5106483;27;46055;-75
2023/02/10 01:09:25;;;;;;;;;101.33;95.00;;;;;5.46;97.70;103314.09;5099417;27;45435;-75
2023/02/10 01:11:50;;;;;;;;;101.00;93.67;;;;;5.46;97.87;103315.88;5099310;27;45844;-75
2023/02/10 01:14:16;;;;;;;;;117.33;105.67;;;;;5.56;97.50;103322.41;5088817;27;45586;-75
2023/02/10 01:16:42;;;;;;;;;114.33;105.33;;;;;5.56;96.61;103311.84;5095996;27;46573;-75
2023/02/10 01:19:08;;;;;;;;;108.33;98.67;;;;;5.55;97.34;103313.66;5098055;27;45251;-76
2023/02/10 01:21:33;;;;;;;;;108.67;101.67;;;;;5.51;97.92;103314.72;5098745;27;45279;-75
2023/02/10 01:23:59;;;;;;;;;117.00;104.00;;;;;5.54;98.25;103321.63;5094448;27;46866;-75
2023/02/10 01:26:24;;;;;;;;;113.67;107.33;;;;;5.58;98.39;103325.81;5095328;27;46938;-76
2023/02/10 01:28:50;;;;;;;;;113.67;105.33;;;;;5.60;98.46;103323.13;5099097;27;45356;-75
2023/02/10 01:31:17;;;;;;;;;113.00;104.00;;;;;5.62;98.07;103322.09;5097978;27;45500;-75
2023/02/10 01:33:43;;;;;;;;;118.00;109.00;;;;;5.63;98.18;103309.75;5099020;27;45460;-75
2023/02/10 01:36:11;;;;;;;;;107.67;98.67;;;;;5.70;98.00;103316.44;5098956;27;45985;-75
2023/02/10 01:38:37;;;;;;;;;108.00;102.33;;;;;5.78;98.23;103322.16;5098892;27;45238;-75
2023/02/10 01:41:04;;;;;;;;;110.33;100.00;;;;;5.78;98.26;103311.59;5101398;27;45379;-75
2023/02/10 01:43:29;;;;;;;;;86.67;66.67;;;;;5.79;97.62;103308.06;5102450;27;45392;-75
2023/02/10 01:45:55;;;;;;;;;98.00;92.33;;;;;5.85;98.24;103320.06;5102308;27;45658;-75
2023/02/10 01:48:21;;;;;;;;;105.67;99.00;;;;;5.83;99.07;103321.91;5102517;27;45352;-75
2023/02/10 01:51:03;;;;;;;;;107.67;99.00;;;;;5.88;99.24;103325.19;5102205;27;45357;-75
2023/02/10 01:53:30;;;;;;;;;101.67;94.33;;;;;5.89;98.86;103313.69;5100764;27;47817;-74
2023/02/10 01:55:59;;;;;;;;;111.00;96.67;;;;;5.91;98.88;103306.56;5102089;27;45388;-75
2023/02/10 01:58:29;;;;;;;;;101.33;92.00;;;;;5.97;98.92;103315.06;5102285;27;45472;-75
2023/02/10 02:00:54;;;;;;;;;107.33;95.33;;;;;5.94;98.85;103309.03;5102295;27;45344;-75
2023/02/10 02:03:19;;;;;;;;;99.33;92.00;;;;;6.03;99.25;103317.41;5100680;27;46385;-75
2023/02/10 02:05:45;;;;;;;;;95.67;84.00;;;;;5.98;99.48;103317.63;5102535;27;45896;-75
2023/02/10 02:08:18;;;;;;;;;94.50;88.00;;;;;5.99;99.27;103306.13;5109078;27;45420;-75
2023/02/10 02:10:53;;;;;;;;;97.00;88.00;;;;;5.99;99.38;103303.50;5089801;27;45216;-75
2023/02/10 02:13:51;;;;;;;;;100.00;94.33;;;;;5.98;100.00;103311.53;5101874;27;45284;-75
2023/02/10 02:16:29;;;;;;;;;92.50;80.25;;;;;5.92;100.00;103316.19;5101843;27;46769;-75
2023/02/10 02:19:08;;;;;;;;;90.75;81.50;;;;;5.90;100.00;103309.28;5101954;27;45555;-75
2023/02/10 02:22:01;;;;;;;;;99.50;93.25;;;;;5.95;100.00;103325.72;5100107;27;45263;-75
2023/02/10 02:24:41;;;;;;;;;92.75;82.50;;;;;5.96;100.00;103324.81;5097285;27;47643;-75
2023/02/10 02:27:12;;;;;;;;;95.75;88.50;;;;;5.96;100.00;103313.38;5101890;27;46463;-75
2023/02/10 02:29:50;;;;;;;;;96.00;88.00;;;;;5.98;100.00;103316.81;5099958;27;45811;-75
2023/02/10 02:32:24;;;;;;;;;93.75;83.00;;;;;5.94;100.00;103316.09;5101887;27;45421;-75
2023/02/10 02:34:53;;;;;;;;;98.50;88.25;;;;;5.99;100.00;103323.78;5101250;27;45483;-74
2023/02/10 02:37:30;;;;;;;;;94.00;85.00;;;;;6.01;100.00;103320.13;5101184;27;45351;-75
2023/02/10 02:39:57;;;;;;;;;95.25;87.50;;;;;6.00;100.00;103309.63;5089169;27;45346;-75
2023/02/10 02:42:25;;;;;;;;;101.00;90.50;;;;;6.01;100.00;103313.97;5100962;27;45389;-75
2023/02/10 02:44:55;;;;;;;;;91.75;80.50;;;;;5.97;100.00;103310.66;5099476;27;46172;-75
2023/02/10 02:47:57;;;;;;;;;93.75;82.50;;;;;6.03;100.00;103315.63;5100908;27;46171;-75
2023/02/10 02:50:25;;;;;;;;;95.00;85.25;;;;;6.03;100.00;103318.25;5100836;27;45366;-75
2023/02/10 02:53:20;;;;;;;;;96.25;88.50;;;;;6.01;100.00;103309.56;5100540;27;45451;-74
2023/02/10 02:55:48;;;;;;;;;94.00;81.50;;;;;6.04;100.00;103311.22;5100657;27;45341;-75
2023/02/10 02:58:34;;;;;;;;;89.75;77.75;;;;;6.06;100.00;103319.91;5101207;27;45376;-75
2023/02/10 03:01:06;;;;;;;;;91.25;76.25;;;;;6.04;100.00;103317.34;5096651;27;45303;-75
2023/02/10 03:03:33;;;;;;;;;88.50;73.50;;;;;6.05;100.00;103324.34;5095141;27;45232;-76
2023/02/10 03:06:00;;;;;;;;;83.00;66.25;;;;;6.03;100.00;103314.75;5101768;27;47225;-75
2023/02/10 03:08:26;;;;;;;;;86.75;73.50;;;;;6.04;100.00;103316.50;5105704;27;45420;-76
2023/02/10 03:10:51;;;;;;;;;87.00;72.75;;;;;6.09;100.00;103318.88;5099776;27;45680;-75
2023/02/10 03:13:16;;;;;;;;;81.50;65.50;;;;;6.06;100.00;103318.13;5100619;27;45400;-75
2023/02/10 03:15:42;;;;;;;;;84.25;70.25;;;;;6.12;100.00;103322.25;5100624;27;45535;-75
2023/02/10 03:18:07;;;;;;;;;86.50;72.00;;;;;6.13;100.00;103323.06;5100107;27;45710;-75
2023/02/10 03:20:32;;;;;;;;;80.50;64.50;;;;;6.13;100.00;103321.28;5100893;27;45369;-75
2023/02/10 03:22:58;;;;;;;;;87.00;70.25;;;;;6.14;100.00;103323.00;5099733;27;45658;-75
2023/02/10 03:25:23;;;;;;;;;86.00;70.75;;;;;6.17;100.00;103336.03;5099858;27;45429;-75
2023/02/10 03:27:48;;;;;;;;;83.50;65.75;;;;;6.16;100.00;103326.41;5100762;27;45798;-75
2023/02/10 03:30:14;;;;;;;;;88.00;75.75;;;;;6.18;100.00;103324.56;5100272;27;45461;-74
2023/02/10 03:32:39;;;;;;;;;87.75;73.75;;;;;6.15;100.00;103327.34;5100640;27;45411;-75
2023/02/10 03:35:05;;;;;;;;;83.50;67.50;;;;;6.22;100.00;103334.97;5100023;27;45735;-75
2023/02/10 03:37:30;;;;;;;;;88.00;75.50;;;;;6.23;100.00;103326.97;5097910;27;45298;-75
2023/02/10 03:39:56;;;;;;;;;87.50;74.50;;;;;6.25;100.00;103329.50;5100504;27;45265;-77
2023/02/10 03:42:21;;;;;;;;;83.50;66.75;;;;;6.23;100.00;103328.75;5100406;27;45250;-75
2023/02/10 03:44:46;;;;;;;;;84.25;66.25;;;;;6.23;100.00;103326.09;5099054;27;45493;-75
2023/02/10 03:47:12;;;;;;;;;81.25;63.25;;;;;6.21;100.00;103325.31;5100310;27;46157;-75
2023/02/10 03:49:37;;;;;;;;;89.25;76.75;;;;;6.17;100.00;103316.72;5098317;27;45364;-75
2023/02/10 03:52:03;;;;;;;;;82.00;65.75;;;;;6.19;100.00;103320.97;5094516;27;45392;-75
2023/02/10 03:54:28;;;;;;;;;87.00;72.00;;;;;6.23;100.00;103323.47;5095623;27;46404;-75
2023/02/10 03:56:53;;;;;;;;;85.50;69.75;;;;;6.21;100.00;103325.31;5093514;27;46296;-75
2023/02/10 03:59:18;;;;;;;;;83.50;69.50;;;;;6.24;100.00;103328.66;5086377;27;45224;-75
2023/02/10 04:01:44;;;;;;;;;86.00;67.00;;;;;6.31;100.00;103334.44;5100505;27;45464;-75
2023/02/10 04:04:09;;;;;;;;;85.50;68.75;;;;;6.35;100.00;103335.16;5099336;27;45476;-75
2023/02/10 04:06:34;;;;;;;;;86.25;66.50;;;;;6.36;100.00;103334.22;5107213;27;46116;-75
2023/02/10 04:09:00;;;;;;;;;85.50;70.00;;;;;6.35;100.00;103327.22;5099884;27;45451;-75
2023/02/10 04:11:25;;;;;;;;;82.25;64.75;;;;;6.31;100.00;103322.09;5099980;27;45281;-74
2023/02/10 04:13:51;;;;;;;;;83.75;67.25;;;;;6.28;100.00;103329.31;5099917;27;45413;-75
2023/02/10 04:16:19;;;;;;;;;87.75;72.25;;;;;6.31;100.00;103339.72;5098594;27;48005;-75
2023/02/10 04:18:44;;;;;;;;;86.25;72.25;;;;;6.32;100.00;103338.81;5086337;27;45400;-75
2023/02/10 04:21:11;;;;;;;;;85.75;70.75;;;;;6.39;100.00;103344.63;5094062;27;46097;-75
2023/02/10 04:23:37;;;;;;;;;84.25;64.25;;;;;6.43;100.00;103344.38;5099836;27;45446;-75
2023/02/10 04:26:03;;;;;;;;;84.00;68.50;;;;;6.42;100.00;103345.31;5094307;27;48309;-75
2023/02/10 04:28:29;;;;;;;;;85.00;68.50;;;;;6.45;100.00;103346.94;5098624;27;46417;-75
2023/02/10 04:30:56;;;;;;;;;76.75;62.25;;;;;6.44;100.00;103351.34;5099197;27;45290;-75
2023/02/10 04:33:24;;;;;;;;;79.50;64.00;;;;;6.51;100.00;103356.31;5085642;27;45339;-75
2023/02/10 04:35:50;;;;;;;;;78.00;61.75;;;;;6.52;100.00;103344.78;5098159;27;45495;-75
2023/02/10 04:38:16;;;;;;;;;85.25;68.25;;;;;6.51;100.00;103340.47;5086340;27;45276;-75
2023/02/10 04:40:42;;;;;;;;;82.75;64.75;;;;;6.57;100.00;103355.97;5099329;27;45500;-75
2023/02/10 04:43:08;;;;;;;;;80.75;63.00;;;;;6.56;100.00;103351.66;5099048;27;45471;-75
2023/02/10 04:45:34;;;;;;;;;85.00;67.75;;;;;6.59;100.00;103359.41;5099430;27;45464;-75
2023/02/10 04:47:59;;;;;;;;;79.25;63.00;;;;;6.60;100.00;103353.19;5098815;27;45527;-75
2023/02/10 04:50:24;;;;;;;;;84.75;69.50;;;;;6.59;100.00;103351.47;5099576;27;45153;-75
2023/02/10 04:52:50;;;;;;;;;83.50;67.75;;;;;6.61;100.00;103351.41;5093909;27;46217;-75
2023/02/10 04:55:15;;;;;;;;;81.25;64.50;;;;;6.65;100.00;103348.47;5092399;27;46182;-75
2023/02/10 04:57:41;;;;;;;;;80.75;63.50;;;;;6.63;100.00;103345.09;5086106;27;45333;-75
2023/02/10 05:00:06;;;;;;;;;80.50;64.00;;;;;6.68;100.00;103352.75;5099477;27;45742;-75
2023/02/10 05:02:32;;;;;;;;;81.25;63.00;;;;;6.68;100.00;103355.41;5098146;27;45381;-75
2023/02/10 05:04:57;;;;;;;;;79.00;61.75;;;;;6.68;100.00;103348.31;5098875;27;45329;-75
2023/02/10 05:07:23;;;;;;;;;77.75;61.75;;;;;6.69;100.00;103339.47;5106704;27;45294;-75
2023/02/10 05:09:49;;;;;;;;;73.75;57.75;;;;;6.73;100.00;103349.88;5098094;27;45340;-75
2023/02/10 05:12:14;;;;;;;;;83.50;69.75;;;;;6.66;100.00;103347.56;5099408;27;45341;-75
2023/02/10 05:14:39;;;;;;;;;85.75;69.50;;;;;6.66;100.00;103347.56;5098306;27;46938;-76
2023/02/10 05:17:05;;;;;;;;;75.25;61.25;;;;;6.70;100.00;103361.44;5102895;27;45282;-75
2023/02/10 05:19:30;;;;;;;;;75.25;61.25;;;;;6.69;100.00;103355.31;5103015;27;45347;-75
2023/02/10 05:21:55;;;;;;;;;81.75;63.00;;;;;6.72;100.00;103359.59;5102219;27;45240;-75
2023/02/10 05:24:21;;;;;;;;;82.00;65.75;;;;;6.66;100.00;103347.56;5102666;27;46280;-75
2023/02/10 05:26:46;;;;;;;;;80.25;62.25;;;;;6.70;100.00;103356.16;5084434;27;45300;-74
2023/02/10 05:29:12;;;;;;;;;76.50;60.25;;;;;6.77;100.00;103369.91;5102711;27;45781;-75
2023/02/10 05:31:37;;;;;;;;;75.25;59.50;;;;;6.80;100.00;103365.28;5102198;27;45373;-75
2023/02/10 05:34:02;;;;;;;;;78.75;62.75;;;;;6.79;100.00;103368.88;5102938;27;45320;-75
2023/02/10 05:36:28;;;;;;;;;80.50;64.50;;;;;6.76;100.00;103357.63;5097499;27;45569;-75
2023/02/10 05:41:37;;;;;;;;;80.25;61.75;;;;;6.82;100.00;103373.13;5100866;27;45649;-75
2023/02/10 05:44:02;;;;;;;;;78.00;61.25;;;;;6.85;100.00;103380.06;5100965;27;45451;-75
2023/02/10 05:46:29;;;;;;;;;79.00;61.75;;;;;6.89;100.00;103385.06;5101876;27;45571;-75
2023/02/10 05:48:54;;;;;;;;;75.75;59.25;;;;;6.89;100.00;103385.06;5101812;27;45327;-75
2023/02/10 05:51:19;;;;;;;;;75.50;59.50;;;;;6.82;100.00;103378.41;5101580;27;45329;-75
2023/02/10 05:53:45;;;;;;;;;79.75;62.50;;;;;6.85;100.00;103380.91;5102311;27;45446;-75
2023/02/10 05:56:10;;;;;;;;;76.75;59.50;;;;;6.89;100.00;103381.59;5101256;27;45494;-75
2023/02/10 05:58:36;;;;;;;;;75.75;60.00;;;;;6.84;100.00;103381.84;5101785;27;45301;-75
2023/02/10 06:01:06;;;;;;;;;75.00;58.25;;;;;6.82;100.00;103378.41;5102353;27;45334;-75
2023/02/10 06:03:31;;;;;;;;;67.00;55.00;;;;;6.79;100.00;103389.16;5102073;27;45417;-75
2023/02/10 06:05:57;;;;;;;;;75.25;61.00;;;;;6.69;100.00;103389.69;5101255;27;45225;-76
2023/02/10 06:08:22;;;;;;;;;76.50;62.25;;;;;6.75;100.00;103395.56;5106669;27;45317;-75
2023/02/10 06:10:47;;;;;;;;;70.00;56.00;;;;;6.77;100.00;103396.34;5101992;27;45442;-75
2023/02/10 06:13:13;;;;;;;;;67.25;55.25;;;;;6.77;100.00;103398.97;5101330;27;46107;-75
2023/02/10 06:15:38;;;;;;;;;78.00;62.00;;;;;6.73;100.00;103395.63;5102082;27;45266;-76
2023/02/10 06:18:03;;;;;;;;;76.75;61.50;;;;;6.68;100.00;103395.88;5095864;27;45595;-76
2023/02/10 06:20:29;;;;;;;;;76.75;59.25;;;;;6.78;100.00;103400.69;5086141;27;45406;-76
2023/02/10 06:22:54;;;;;;;;;74.75;59.25;;;;;6.85;100.00;103411.78;5101498;27;47253;-75
2023/02/10 06:25:20;;;;;;;;;78.50;62.50;;;;;6.86;100.00;103411.72;5101099;27;45415;-75
2023/02/10 06:27:46;;;;;;;;;73.50;59.50;;;;;6.80;100.00;103407.59;5100706;27;45305;-75
2023/02/10 06:30:12;;;;;;;;;76.25;60.75;;;;;6.79;100.00;103403.25;5101333;27;45258;-78
2023/02/10 06:32:37;;;;;;;;;75.75;59.50;;;;;6.78;100.00;103400.69;5100750;27;47471;-76
2023/02/10 06:35:03;;;;;;;;;77.50;60.50;;;;;6.80;100.00;103398.81;5101460;27;45289;-78
2023/02/10 06:37:29;;;;;;;;;74.75;60.75;;;;;6.82;100.00;103404.84;5096236;27;45386;-75
2023/02/10 06:39:54;;;;;;;;;75.75;60.75;;;;;6.84;100.00;103408.28;5080578;27;45434;-75
2023/02/10 06:42:19;;;;;;;;;76.75;61.75;;;;;6.77;100.00;103398.97;5091378;27;46121;-75
2023/02/10 06:44:45;;;;;;;;;78.50;62.75;;;;;6.77;100.00;103396.34;5100359;27;45497;-75
2023/02/10 06:47:10;;;;;;;;;73.50;59.25;;;;;6.77;100.00;103398.97;5100425;27;46037;-75
2023/02/10 06:49:36;;;;;;;;;75.50;60.00;;;;;6.79;100.00;103400.59;5099608;27;45975;-76
2023/02/10 06:52:02;;;;;;;;;79.25;62.25;;;;;6.76;100.00;103384.06;5101304;27;45313;-75
2023/02/10 06:54:28;;;;;;;;;78.50;62.00;;;;;6.80;100.00;103399.66;5101197;27;45280;-75
2023/02/10 06:56:53;;;;;;;;;81.25;64.00;;;;;6.76;100.00;103405.22;5100841;27;45257;-75
2023/02/10 06:59:20;;;;;;;;;77.50;61.50;;;;;6.79;100.00;103405.03;5099615;27;46055;-75
2023/02/10 07:01:45;;;;;;;;;81.25;61.75;;;;;6.76;100.00;103400.75;5099453;27;46945;-75
2023/02/10 07:04:11;;;;;;;;;82.00;66.00;;;;;6.76;100.00;103407.88;5099756;27;45397;-75
2023/02/10 07:06:37;;;;;;;;;80.50;65.75;;;;;6.76;100.00;103415.78;5107361;27;45535;-75
2023/02/10 07:09:03;;;;;;;;;78.00;64.75;;;;;6.77;100.00;103409.56;5087543;27;45583;-75
2023/02/10 07:11:30;;;;;;;;;81.00;64.25;;;;;6.77;100.00;103405.09;5101123;27;46286;-74
2023/02/10 07:13:55;;;;;;;;;80.25;63.75;;;;;6.75;100.00;103409.63;5100957;27;45664;-73
2023/02/10 07:16:21;;;;;;;;;77.25;61.50;;;;;6.76;100.00;103416.63;5100788;27;45423;-74
2023/02/10 07:18:46;;;;;;;;;81.25;64.00;;;;;6.73;100.00;103418.59;5095793;27;47008;-74
2023/02/10 07:21:11;;;;;;;;;79.50;65.75;;;;;6.74;100.00;103422.94;5093684;27;46181;-74
2023/02/10 07:23:37;;;;;;;;;82.50;66.75;;;;;6.75;100.00;103433.44;5100926;27;45216;-74
2023/02/10 07:26:04;;;;;;;;;85.00;66.25;;;;;6.77;100.00;103430.72;5099394;27;45371;-74
2023/02/10 07:28:30;;;;;;;;;81.25;64.25;;;;;6.78;100.00;103421.84;5100267;27;45446;-74
2023/02/10 07:30:55;;;;;;;;;81.00;64.75;;;;;6.75;100.00;103429.91;5100606;27;46430;-74
2023/02/10 07:33:20;;;;;;;;;79.50;62.00;;;;;6.82;100.00;103434.81;5100019;27;45320;-74
2023/02/10 07:35:46;;;;;;;;;77.50;62.50;;;;;6.82;100.00;103434.81;5100529;27;45283;-74
2023/02/10 07:38:12;;;;;;;;;80.00;64.25;;;;;6.82;100.00;103440.09;5099128;27;46173;-73
2023/02/10 07:40:37;;;;;;;;;77.25;61.25;;;;;6.82;100.00;103440.09;5095782;27;47126;-74
2023/02/10 07:43:02;;;;;;;;;75.50;61.00;;;;;6.80;100.00;103435.84;5100426;27;45451;-74
2023/02/10 07:45:30;;;;;;;;;82.00;66.25;;;;;6.81;100.00;103432.25;5100764;27;45345;-74
2023/02/10 07:47:57;;;;;;;;;84.25;69.00;;;;;6.82;100.00;103445.38;5087375;27;45342;-75
2023/02/10 07:50:22;;;;;;;;;84.25;67.00;;;;;6.69;99.98;103426.69;5100001;27;45268;-74
2023/02/10 07:52:48;;;;;;;;;79.25;64.50;;;;;6.85;100.00;103449.63;5095939;27;45651;-74
2023/02/10 07:55:13;;;;;;;;;76.50;61.00;;;;;6.85;100.00;103441.72;5094135;27;45261;-75
2023/02/10 07:57:39;;;;;;;;;83.50;64.50;;;;;6.93;100.00;103457.16;5095611;27;46252;-74
2023/02/10 08:00:06;;;;;;;;;78.75;61.75;;;;;6.93;100.00;103458.03;5093021;27;46009;-74
2023/02/10 08:02:32;;;;;;;;;86.50;73.50;;;;;6.91;100.00;103462.53;5100141;27;45329;-74
2023/02/10 08:04:58;;;;;;;;;91.00;77.00;;;;;6.94;100.00;103467.66;5100448;27;45330;-74
2023/02/10 08:07:24;;;;;;;;;87.25;71.25;;;;;6.91;100.00;103464.31;5107596;27;45326;-74
2023/02/10 08:09:49;;;;;;;;;85.00;67.75;;;;;6.99;100.00;103466.53;5099917;27;45341;-73
2023/02/10 08:12:15;;;;;;;;;91.50;81.00;;;;;7.03;100.00;103473.38;5099467;27;45384;-74
2023/02/10 08:14:40;;;;;;;;;86.00;73.75;;;;;7.00;100.00;103457.69;5091438;27;45760;-74
2023/02/10 08:17:05;;;;;;;;;83.25;67.50;;;;;7.11;99.92;103467.66;5095409;27;45554;-75
2023/02/10 08:19:31;;;;;;;;;81.00;61.50;;;;;7.12;100.00;103459.66;5084867;27;47322;-75
2023/02/10 08:21:57;;;;;;;;;79.00;63.00;;;;;7.08;99.76;103460.75;5095864;27;45472;-74
2023/02/10 08:24:22;;;;;;;;;83.50;68.50;;;;;7.14;99.68;103470.16;5099728;27;46028;-76
2023/02/10 08:26:48;;;;;;;;;81.50;66.25;;;;;7.15;98.48;103469.22;5098557;27;46234;-75
2023/02/10 08:29:13;;;;;;;;;82.50;67.50;;;;;7.13;98.39;103464.03;5098489;27;47206;-75
2023/02/10 08:31:39;;;;;;;;;81.75;66.50;;;;;7.18;98.42;103461.09;5099657;27;45489;-75
2023/02/10 08:34:04;;;;;;;;;85.75;75.75;;;;;7.23;99.76;103468.78;5100081;27;45516;-76
2023/02/10 08:36:30;;;;;;;;;79.25;63.25;;;;;7.25;99.10;103464.28;5099446;27;45417;-75
2023/02/10 08:38:56;;;;;;;;;95.00;88.75;;;;;7.31;98.49;103471.88;5094089;27;48016;-75
2023/02/10 08:41:22;;;;;;;;;113.00;108.67;;;;;7.30;98.12;103464.84;5093708;27;45521;-75
2023/02/10 08:43:47;;;;;;;;;83.50;71.75;;;;;7.28;97.36;103459.66;5099046;27;45432;-76
2023/02/10 08:46:12;;;;;;;;;86.75;72.25;;;;;7.31;96.65;103480.66;5095624;27;45465;-76
2023/02/10 08:48:38;;;;;;;;;78.00;62.00;;;;;7.32;96.14;103486.81;5094376;27;46100;-74
2023/02/10 08:51:08;;;;;;;;;76.25;60.75;;;;;7.37;95.95;103486.56;5096659;27;46658;-76
2023/02/10 08:53:34;;;;;;;;;75.75;61.00;;;;;7.41;96.34;103483.66;5096205;27;45351;-78
2023/02/10 08:56:02;;;;;;;;;79.50;63.50;;;;;7.47;96.25;103481.59;5094541;27;46777;-79
2023/02/10 08:58:28;;;;;;;;;77.00;60.75;;;;;7.53;96.08;103498.00;5082067;27;46107;-78
2023/02/10 09:00:53;;;;;;;;;77.00;60.50;;;;;7.54;94.70;103506.78;5114724;27;46616;-81
2023/02/10 09:03:19;;;;;;;;;74.00;59.50;;;;;7.56;94.67;103515.47;5088881;27;45360;-82
2023/02/10 09:05:45;;;;;;;;;72.00;57.25;;;;;7.55;94.09;103497.91;5083639;27;45879;-77
2023/02/10 09:08:12;;;;;;;;;85.50;68.25;;;;;7.55;94.61;103487.31;5101516;27;46003;-74
2023/02/10 09:10:41;;;;;;;;;84.25;68.25;;;;;7.53;94.06;103492.69;5095046;27;45274;-74
2023/02/10 09:13:08;;;;;;;;;84.75;62.50;;;;;7.62;94.45;103499.25;5094575;27;45348;-74
2023/02/10 09:15:36;;;;;;;;;76.25;60.25;;;;;7.69;93.69;103497.97;5091075;27;45896;-74
2023/02/10 09:18:02;;;;;;;;;77.25;60.00;;;;;7.74;93.09;103497.72;5098060;27;45487;-74
2023/02/10 09:20:27;;;;;;;;;75.00;60.25;;;;;7.79;93.64;103494.81;5097540;27;45435;-73
2023/02/10 09:22:52;;;;;;;;;75.75;60.25;;;;;7.87;93.11;103495.22;5097617;27;45368;-74
2023/02/10 09:25:18;;;;;;;;;80.00;67.50;;;;;7.93;93.79;103484.25;5097482;27;45474;-73
2023/02/10 09:27:43;;;;;;;;;75.75;59.75;;;;;8.01;93.21;103475.00;5095798;27;46029;-73
2023/02/10 09:30:09;;;;;;;;;82.75;70.00;;;;;8.11;93.53;103478.00;5077887;27;45390;-74
2023/02/10 09:32:34;;;;;;;;;87.50;75.50;;;;;8.15;93.52;103466.28;5089928;27;45449;-73
2023/02/10 09:34:59;;;;;;;;;82.25;65.00;;;;;8.18;92.36;103464.31;5098366;27;45301;-74
2023/02/10 09:37:25;;;;;;;;;77.50;61.75;;;;;8.28;92.20;103463.72;5091704;27;48071;-74
2023/02/10 09:39:50;;;;;;;;;80.25;60.75;;;;;8.30;92.99;103468.00;5090640;27;45303;-74
2023/02/10 09:42:37;;;;;;;;;77.25;62.75;;;;;8.38;92.48;103475.47;5098537;27;45423;-74
2023/02/10 09:45:11;;;;;;;;;77.25;60.25;;;;;8.46;91.78;103480.31;5098344;27;45685;-74
2023/02/10 09:47:49;;;;;;;;;72.75;58.00;;;;;8.54;91.40;103487.84;5099144;27;45457;-74
2023/02/10 09:50:29;;;;;;;;;76.50;59.50;;;;;8.61;90.26;103491.84;5098535;27;45375;-74
2023/02/10 09:53:16;;;;;;;;;70.75;57.50;;;;;8.67;90.16;103498.56;5099208;27;45261;-74
2023/02/10 09:55:48;;;;;;;;;72.50;58.50;;;;;8.74;90.34;103504.34;5098473;27;45421;-73
2023/02/10 09:58:32;;;;;;;;;73.25;58.00;;;;;8.79;89.91;103496.94;5098714;27;45390;-73
2023/02/10 10:01:10;;;;;;;;;73.75;59.25;;;;;8.74;89.35;103486.63;5098847;27;45382;-73
2023/02/10 10:03:58;;;;;;;;;70.25;56.75;;;;;8.83;90.13;103501.13;5102097;27;45346;-73
2023/02/10 10:06:29;;;;;;;;;74.75;59.00;;;;;8.93;89.50;103504.94;5107897;27;45295;-74
2023/02/10 10:09:05;;;;;;;;;71.50;57.00;;;;;8.98;89.04;103495.81;5102600;27;45459;-74
2023/02/10 10:11:48;;;;;;;;;69.75;56.50;;;;;9.05;89.25;103497.13;5100508;27;45943;-73
2023/02/10 10:14:18;;;;;;;;;67.50;55.00;;;;;9.20;89.12;103504.16;5102032;27;45353;-73
2023/02/10 10:17:11;;;;;;;;;64.75;54.00;;;;;9.31;89.38;103498.13;5097297;27;47125;-73
2023/02/10 10:20:02;;;;;;;;;72.25;57.50;;;;;9.37;88.64;103496.06;5095486;27;45392;-74
2023/02/10 10:22:36;;;;;;;;;71.25;56.75;;;;;9.39;88.54;103489.69;5100760;27;45320;-75
2023/02/10 10:25:20;;;;;;;;;68.75;56.50;;;;;9.43;88.18;103493.84;5096262;27;45485;-74
2023/02/10 10:27:59;;;;;;;;;68.25;54.75;;;;;9.50;87.61;103493.44;5094070;27;46355;-73
2023/02/10 10:30:37;;;;;;;;;67.50;54.25;;;;;9.57;87.66;103490.31;5101657;27;46044;-73
2023/02/10 10:33:20;;;;;;;;;69.75;57.75;;;;;9.52;84.69;103505.66;5098312;27;45412;-76
2023/02/10 10:35:45;;;;;;;;;68.00;55.25;;;;;9.59;86.42;103507.00;5091574;27;45349;-73
2023/02/10 10:38:14;;;;;;;;;70.00;56.00;;;;;9.69;86.89;103509.91;5096624;27;45601;-74
2023/02/10 10:40:41;;;;;;;;;67.50;54.00;;;;;9.74;86.69;103514.91;5095763;27;46091;-73
2023/02/10 10:43:17;;;;;;;;;70.75;56.00;;;;;9.84;86.74;103512.50;5095025;27;45306;-73
2023/02/10 10:45:48;;;;;;;;;70.25;55.75;;;;;9.95;86.30;103509.13;5100878;27;45473;-73
2023/02/10 10:48:28;;;;;;;;;66.75;53.75;;;;;10.04;86.31;103515.63;5097595;27;45483;-73
2023/02/10 10:50:58;;;;;;;;;65.00;53.50;;;;;10.16;86.41;103517.47;5093741;27;45523;-73
2023/02/10 10:53:43;;;;;;;;;72.25;55.25;;;;;10.37;86.94;103519.63;5091422;27;45676;-72
2023/02/10 10:56:20;;;;;;;;;67.25;54.75;;;;;10.52;85.77;103519.56;5088613;27;45268;-73
2023/02/10 10:58:47;;;;;;;;;66.50;52.50;;;;;10.56;85.08;103507.75;5097984;27;46075;-73
2023/02/10 11:01:14;;;;;;;;;69.00;54.75;;;;;10.60;84.58;103510.09;5100478;27;45554;-73
2023/02/10 11:03:40;;;;;;;;;67.50;54.75;;;;;10.65;84.47;103503.63;5100958;27;45236;-73
2023/02/10 11:06:09;;;;;;;;;113.67;107.67;;;;;10.78;85.24;103500.97;5103218;27;45374;-73
2023/02/10 11:08:43;;;;;;;;;114.33;110.00;;;;;10.87;85.54;103489.66;5102535;27;46228;-73
2023/02/10 11:11:15;;;;;;;;;62.75;51.00;;;;;10.94;84.98;103492.72;5096440;27;48013;-73
2023/02/10 11:13:50;;;;;;;;;66.00;51.25;;;;;11.00;83.97;103489.66;5098994;27;45291;-73
2023/02/10 11:16:17;;;;;;;;;65.00;52.25;;;;;10.94;83.71;103482.94;5101302;27;45639;-73
2023/02/10 11:18:51;;;;;;;;;254.00;234.50;;;;;10.94;83.69;103482.09;5087779;27;45714;-72